Time;durP1;ratioP1;P1;durP2;ratioP2;P2;SDS_P1;SDS_P2;PMS_P1;PMS_P2;Temp;Humidity;BMP_temperature;BMP_pressure;BME280_temperature;BME280_humidity;BME280_pressure;Samples;Min_cycle;Max_cycle;Signal;HPM_P1;HPM_P2
2023/03/14 00:01:36;;;;;;;5.80;1.30;;;;;;;10.57;100.00;99073.84;5221447;28;20056;-75
2023/03/14 00:04:06;;;;;;;5.63;1.63;;;;;;;10.52;100.00;99057.56;5245743;28;20075;-74
2023/03/14 00:06:37;;;;;;;6.70;1.55;;;;;;;10.49;100.00;99053.44;5244744;28;20020;-75
2023/03/14 00:09:07;;;;;;;3.67;1.05;;;;;;;10.49;100.00;99060.66;5241858;28;20024;-75
2023/03/14 00:11:38;;;;;;;6.65;1.35;;;;;;;10.44;100.00;99060.44;5245056;28;20063;-75
2023/03/14 00:14:08;;;;;;;8.05;1.83;;;;;;;10.42;100.00;99067.88;5245145;28;20035;-75
2023/03/14 00:16:39;;;;;;;11.50;1.40;;;;;;;10.36;100.00;99067.69;5244863;28;20137;-75
2023/03/14 00:19:09;;;;;;;4.65;1.20;;;;;;;10.37;100.00;99076.53;5245742;28;20069;-75
2023/03/14 00:21:40;;;;;;;7.43;1.23;;;;;;;10.37;100.00;99079.22;5244957;28;20433;-75
2023/03/14 00:24:10;;;;;;;8.27;1.60;;;;;;;10.35;100.00;99092.03;5246500;28;20450;-74
2023/03/14 00:26:40;;;;;;;11.15;1.42;;;;;;;10.35;100.00;99086.66;5245306;28;20408;-75
2023/03/14 00:29:11;;;;;;;7.60;1.77;;;;;;;10.29;100.00;99079.44;5235925;28;20059;-75
2023/03/14 00:31:41;;;;;;;7.60;1.73;;;;;;;10.28;100.00;99080.47;5245222;28;20031;-75
2023/03/14 00:34:12;;;;;;;9.15;1.40;;;;;;;10.20;100.00;99078.81;5244431;28;20029;-75
2023/03/14 00:36:42;;;;;;;10.95;2.08;;;;;;;10.22;100.00;99086.63;5244709;28;20381;-75
2023/03/14 00:39:13;;;;;;;13.65;1.52;;;;;;;10.20;100.00;99077.97;5226777;28;20027;-75
2023/03/14 00:41:43;;;;;;;8.88;1.67;;;;;;;10.20;100.00;99061.91;5241172;28;20102;-75
2023/03/14 00:44:13;;;;;;;9.82;1.52;;;;;;;10.22;100.00;99078.59;5244830;28;20109;-75
2023/03/14 00:46:44;;;;;;;8.25;1.70;;;;;;;10.24;100.00;99080.09;5243953;28;20131;-75
2023/03/14 00:49:14;;;;;;;7.40;1.98;;;;;;;10.27;100.00;99087.69;5244437;28;20029;-75
2023/03/14 00:51:45;;;;;;;8.85;1.95;;;;;;;10.30;100.00;99081.94;5243541;28;20099;-75
2023/03/14 00:54:15;;;;;;;7.60;1.73;;;;;;;10.37;100.00;99080.03;5232264;28;20362;-75
2023/03/14 00:56:46;;;;;;;8.13;1.60;;;;;;;10.34;100.00;99079.63;5226443;28;20032;-75
2023/03/14 00:59:17;;;;;;;8.80;1.80;;;;;;;10.34;100.00;99091.22;5238156;28;20094;-75
2023/03/14 01:01:47;;;;;;;12.10;1.70;;;;;;;10.36;100.00;99080.25;5244146;28;20020;-75
2023/03/14 01:04:18;;;;;;;7.07;1.60;;;;;;;10.36;100.00;99070.38;5248393;28;20046;-75
2023/03/14 01:06:48;;;;;;;12.77;2.75;;;;;;;10.37;100.00;99058.59;5229862;28;20022;-75
2023/03/14 01:09:19;;;;;;;9.05;2.17;;;;;;;10.38;100.00;99065.59;5244524;28;20051;-75
2023/03/14 01:11:49;;;;;;;11.90;1.67;;;;;;;10.41;100.00;99063.56;5247415;28;20028;-75
2023/03/14 01:14:20;;;;;;;10.05;1.70;;;;;;;10.35;100.00;99062.53;5248305;28;20032;-75
2023/03/14 01:16:50;;;;;;;17.30;2.00;;;;;;;10.38;100.00;99059.44;5247279;28;20024;-75
2023/03/14 01:19:21;;;;;;;10.25;2.40;;;;;;;10.37;100.00;99053.25;5247730;28;20612;-75
2023/03/14 01:21:51;;;;;;;8.80;2.45;;;;;;;10.36;100.00;99048.09;5230214;28;20090;-75
2023/03/14 01:24:21;;;;;;;10.57;1.73;;;;;;;10.40;100.00;99045.84;5229637;28;20038;-74
2023/03/14 01:26:52;;;;;;;13.70;2.03;;;;;;;10.42;100.00;99046.44;5247661;28;20112;-75
2023/03/14 01:29:22;;;;;;;14.40;2.30;;;;;;;10.44;100.00;99029.13;5219601;28;20197;-75
2023/03/14 01:31:53;;;;;;;9.93;2.10;;;;;;;10.46;100.00;99028.91;5247255;28;20031;-75
2023/03/14 01:34:23;;;;;;;10.50;1.83;;;;;;;10.46;100.00;99040.44;5247485;28;20554;-75
2023/03/14 01:36:54;;;;;;;10.38;1.60;;;;;;;10.50;100.00;99030.13;5246919;28;20058;-75
2023/03/14 01:39:24;;;;;;;8.48;1.67;;;;;;;10.47;100.00;99034.06;5247723;28;20135;-75
2023/03/14 01:41:55;;;;;;;17.45;2.22;;;;;;;10.45;100.00;99025.41;5243485;28;20197;-75
2023/03/14 01:44:25;;;;;;;17.73;2.17;;;;;;;10.43;100.00;99024.78;5247285;28;20108;-75
2023/03/14 01:46:56;;;;;;;11.80;2.05;;;;;;;10.40;100.00;99014.50;5246573;28;20090;-75
2023/03/14 01:49:30;;;;;;;9.20;1.83;;;;;;;10.38;100.00;99016.53;5247047;28;20029;-75
2023/03/14 01:52:06;;;;;;;18.08;2.30;;;;;;;10.40;100.00;99016.34;5247013;28;20031;-75
2023/03/14 01:54:54;;;;;;;13.65;2.15;;;;;;;10.37;100.00;99017.56;5247334;28;20112;-75
2023/03/14 01:57:46;;;;;;;12.27;2.10;;;;;;;10.37;100.00;99017.56;5246534;28;20024;-75
2023/03/14 02:00:20;;;;;;;15.98;2.42;;;;;;;10.40;100.00;99017.16;5216714;28;20481;-75
2023/03/14 02:02:56;;;;;;;8.73;1.95;;;;;;;10.37;100.00;99013.03;5247641;28;20056;-75
2023/03/14 02:05:32;;;;;;;16.92;2.40;;;;;;;10.36;100.00;98999.84;5247452;28;20476;-75
2023/03/14 02:08:11;;;;;;;10.02;2.17;;;;;;;10.33;100.00;99010.97;5242833;28;20028;-75
2023/03/14 02:10:49;;;;;;;15.77;2.10;;;;;;;10.33;100.00;98997.56;5242718;28;20047;-75
2023/03/14 02:13:39;;;;;;;11.02;1.45;;;;;;;10.28;100.00;98986.66;5231916;28;20017;-75
2023/03/14 02:16:10;;;;;;;10.90;1.52;;;;;;;10.16;100.00;98980.28;5246464;28;20037;-74
2023/03/14 02:18:52;;;;;;;10.13;1.52;;;;;;;10.10;100.00;98979.25;5246984;28;20020;-74
2023/03/14 02:21:52;;;;;;;13.13;1.98;;;;;;;10.01;100.00;98983.19;5229881;28;20033;-74
2023/03/14 02:24:48;;;;;;;11.15;1.50;;;;;;;9.93;100.00;98973.50;5246599;28;20017;-74
2023/03/14 02:27:39;;;;;;;10.00;1.20;;;;;;;9.90;100.00;98975.78;5230877;28;20063;-75
2023/03/14 02:30:32;;;;;;;8.60;1.65;;;;;;;9.98;100.00;98984.41;5224225;28;20076;-75
2023/03/14 02:33:19;;;;;;;17.52;1.67;;;;;;;9.98;100.00;98976.38;5235211;28;20031;-74
2023/03/14 02:35:56;;;;;;;6.55;2.03;;;;;;;9.96;100.00;98973.09;5246016;28;20029;-75
2023/03/14 02:39:03;;;;;;;5.05;0.85;;;;;;;9.95;100.00;98987.53;5246105;28;20451;-75
2023/03/14 02:41:33;;;;;;;8.48;1.08;;;;;;;9.94;100.00;98982.34;5243072;28;20032;-74
2023/03/14 02:44:04;;;;;;;9.68;0.98;;;;;;;9.96;100.00;98985.66;5228053;28;20024;-74
2023/03/14 02:46:34;;;;;;;9.43;1.05;;;;;;;9.95;100.00;98990.19;5246119;28;20500;-75
2023/03/14 02:49:10;;;;;;;2.35;0.47;;;;;;;9.99;100.00;98979.88;5245604;28;20028;-75
2023/03/14 02:51:42;;;;;;;3.05;0.40;;;;;;;9.90;100.00;98987.31;5244751;28;20051;-75
2023/03/14 02:54:15;;;;;;;4.43;0.60;;;;;;;9.81;100.00;98986.69;5228214;28;20100;-75
2023/03/14 02:56:45;;;;;;;5.55;0.80;;;;;;;9.76;100.00;98981.13;5245559;28;20082;-75
2023/03/14 02:59:16;;;;;;;4.50;0.80;;;;;;;9.68;100.00;98989.38;5237471;28;20147;-74
2023/03/14 03:01:46;;;;;;;9.65;0.77;;;;;;;9.54;100.00;98990.41;5241213;28;20031;-75
2023/03/14 03:04:17;;;;;;;5.10;0.70;;;;;;;9.45;100.00;98994.31;5227696;28;20047;-74
2023/03/14 03:06:47;;;;;;;4.10;0.60;;;;;;;9.42;100.00;98992.84;5245148;28;20165;-74
2023/03/14 03:09:18;;;;;;;3.75;0.70;;;;;;;9.31;100.00;98990.78;5240620;28;20035;-75
2023/03/14 03:11:48;;;;;;;7.47;1.05;;;;;;;9.20;100.00;98978.81;5225346;28;20118;-74
2023/03/14 03:14:19;;;;;;;6.13;1.00;;;;;;;9.14;100.00;98981.50;5245606;28;20024;-75
2023/03/14 03:16:49;;;;;;;3.22;0.82;;;;;;;9.04;100.00;98977.34;5244193;28;20103;-74
2023/03/14 03:19:20;;;;;;;7.90;1.25;;;;;;;8.88;100.00;98972.34;5245259;28;20036;-74
2023/03/14 03:21:51;;;;;;;5.75;1.10;;;;;;;8.82;100.00;98965.13;5245046;28;20048;-75
2023/03/14 03:24:21;;;;;;;4.78;1.20;;;;;;;8.67;100.00;98967.94;5227302;28;20025;-75
2023/03/14 03:26:53;;;;;;;3.47;1.15;;;;;;;8.68;100.00;98969.59;5245233;28;20025;-74
2023/03/14 03:29:23;;;;;;;3.90;1.45;;;;;;;8.67;100.00;98977.81;5234920;28;20025;-75
2023/03/14 03:31:54;;;;;;;11.65;2.35;;;;;;;8.71;100.00;98976.41;5245248;28;20029;-75
2023/03/14 03:34:24;;;;;;;9.15;1.20;;;;;;;8.69;100.00;98973.94;5227243;28;20028;-75
2023/03/14 03:36:57;;;;;;;5.05;1.30;;;;;;;8.71;100.00;98973.72;5244588;28;20554;-74
2023/03/14 03:39:27;;;;;;;7.05;1.25;;;;;;;8.69;100.00;98973.13;5244823;28;20024;-75
2023/03/14 03:41:58;;;;;;;6.32;1.35;;;;;;;8.63;100.00;98974.72;5241212;28;20042;-74
2023/03/14 03:44:28;;;;;;;7.97;1.48;;;;;;;8.62;100.00;98966.91;5244898;28;20020;-74
2023/03/14 03:46:59;;;;;;;6.00;1.65;;;;;;;8.63;100.00;98968.53;5244036;28;20052;-74
2023/03/14 03:49:31;;;;;;;12.52;1.92;;;;;;;8.62;100.00;98961.56;5244792;28;20143;-75
2023/03/14 03:52:01;;;;;;;9.02;1.77;;;;;;;8.61;100.00;98966.06;5241260;28;20036;-74
2023/03/14 03:54:32;;;;;;;10.70;2.33;;;;;;;8.60;100.00;98964.44;5234316;28;20029;-74
2023/03/14 03:57:02;;;;;;;5.68;1.65;;;;;;;8.63;100.00;98968.53;5243708;28;20032;-74
2023/03/14 03:59:33;;;;;;;9.45;1.65;;;;;;;8.62;100.00;98956.22;5233854;28;20046;-75
2023/03/14 04:02:04;;;;;;;13.02;2.30;;;;;;;8.66;100.00;98963.63;5242632;28;20059;-74
2023/03/14 04:04:34;;;;;;;6.45;1.70;;;;;;;8.70;100.00;98950.69;5226627;28;20027;-75
2023/03/14 04:07:05;;;;;;;16.13;2.28;;;;;;;8.73;100.00;98950.28;5226125;28;20028;-74
2023/03/14 04:09:37;;;;;;;11.65;2.33;;;;;;;8.76;100.00;98957.91;5222379;28;20044;-74
2023/03/14 04:12:08;;;;;;;8.52;2.17;;;;;;;8.79;100.00;98952.19;5244362;28;20686;-74
2023/03/14 04:14:38;;;;;;;8.30;1.80;;;;;;;8.85;100.00;98955.88;5244247;28;20154;-74
2023/03/14 04:17:09;;;;;;;11.20;2.70;;;;;;;8.86;100.00;98961.03;5243628;28;20077;-74
2023/03/14 04:19:39;;;;;;;11.88;2.20;;;;;;;8.89;100.00;98963.31;5243950;28;20039;-74
2023/03/14 04:22:10;;;;;;;10.48;2.17;;;;;;;8.92;100.00;98949.53;5244235;28;20079;-75
2023/03/14 04:24:40;;;;;;;12.77;2.30;;;;;;;8.96;100.00;98948.09;5226147;28;20047;-74
2023/03/14 04:27:10;;;;;;;11.38;2.05;;;;;;;9.03;100.00;98953.44;5243678;28;20016;-74
2023/03/14 04:29:42;;;;;;;10.93;2.30;;;;;;;9.06;100.00;98953.06;5233259;28;20013;-74
2023/03/14 04:32:12;;;;;;;9.48;1.90;;;;;;;9.10;100.00;98943.59;5244006;28;20025;-74
2023/03/14 04:34:43;;;;;;;8.75;2.30;;;;;;;9.12;100.00;98956.78;5247019;28;20389;-74
2023/03/14 04:37:13;;;;;;;6.10;1.63;;;;;;;9.14;100.00;98949.38;5230189;28;20028;-74
2023/03/14 04:39:44;;;;;;;11.50;3.28;;;;;;;9.18;100.00;98940.72;5248394;28;20037;-75
2023/03/14 04:42:14;;;;;;;6.00;2.20;;;;;;;9.21;100.00;98944.84;5247409;28;20086;-74
2023/03/14 04:44:46;;;;;;;11.10;2.47;;;;;;;9.26;100.00;98945.91;5248176;28;20023;-73
2023/03/14 04:47:17;;;;;;;7.78;2.10;;;;;;;9.32;100.00;98946.94;5247606;28;20025;-74
2023/03/14 04:49:47;;;;;;;14.10;4.30;;;;;;;9.31;100.00;98932.72;5247940;28;20035;-74
2023/03/14 04:52:18;;;;;;;14.23;3.15;;;;;;;9.32;100.00;98930.88;5248090;28;20400;-75
2023/03/14 04:54:48;;;;;;;13.52;2.33;;;;;;;9.35;100.00;98938.50;5247801;28;20773;-74
2023/03/14 04:57:19;;;;;;;10.60;3.35;;;;;;;9.39;100.00;98944.25;5229684;28;20028;-74
2023/03/14 04:59:49;;;;;;;7.10;2.53;;;;;;;9.40;100.00;98938.72;5217636;28;20023;-74
2023/03/14 05:02:20;;;;;;;8.95;3.38;;;;;;;9.38;100.00;98929.22;5248007;28;20082;-75
2023/03/14 05:04:50;;;;;;;11.82;3.40;;;;;;;9.34;100.00;98931.50;5247561;28;20020;-75
2023/03/14 05:07:21;;;;;;;9.93;3.33;;;;;;;9.38;100.00;98935.41;5246998;28;20103;-75
2023/03/14 05:09:53;;;;;;;7.40;2.80;;;;;;;9.40;100.00;98932.53;5226399;28;20016;-75
2023/03/14 05:12:23;;;;;;;12.52;3.55;;;;;;;9.33;100.00;98936.00;5247632;28;20027;-75
2023/03/14 05:14:53;;;;;;;11.10;3.78;;;;;;;9.30;100.00;98930.25;5247280;28;20021;-74
2023/03/14 05:17:24;;;;;;;11.18;3.90;;;;;;;9.24;100.00;98931.09;5246765;28;20025;-75
2023/03/14 05:19:54;;;;;;;17.80;4.75;;;;;;;9.22;100.00;98930.44;5229531;28;20043;-74
2023/03/14 05:22:25;;;;;;;12.65;4.63;;;;;;;9.17;100.00;98925.72;5229780;28;20029;-74
2023/03/14 05:24:58;;;;;;;10.70;3.80;;;;;;;9.14;100.00;98918.09;5247287;28;20404;-74
2023/03/14 05:27:28;;;;;;;16.77;4.32;;;;;;;9.12;100.00;98924.66;5246843;28;20033;-75
2023/03/14 05:29:59;;;;;;;16.67;4.60;;;;;;;9.12;100.00;98916.66;5236574;28;20129;-74
2023/03/14 05:32:29;;;;;;;12.68;4.43;;;;;;;9.15;100.00;98924.28;5229614;28;20028;-75
2023/03/14 05:35:00;;;;;;;11.57;4.78;;;;;;;9.14;100.00;98912.75;5247242;28;20028;-74
2023/03/14 05:37:30;;;;;;;14.57;5.13;;;;;;;9.16;100.00;98924.06;5246699;28;20112;-74
2023/03/14 05:40:01;;;;;;;11.85;4.25;;;;;;;9.16;100.00;98925.91;5246405;28;20017;-74
2023/03/14 05:42:32;;;;;;;13.07;3.85;;;;;;;9.23;100.00;98929.41;5244020;28;20028;-74
2023/03/14 05:45:03;;;;;;;12.30;4.32;;;;;;;9.22;100.00;98930.44;5247198;28;20099;-74
2023/03/14 05:47:33;;;;;;;11.95;3.28;;;;;;;9.20;100.00;98927.16;5246221;28;20123;-75
2023/03/14 05:50:04;;;;;;;8.15;3.80;;;;;;;9.26;100.00;98935.19;5246855;28;20024;-75
2023/03/14 05:52:35;;;;;;;9.80;3.55;;;;;;;9.28;100.00;98934.97;5221417;28;20033;-75
2023/03/14 05:55:05;;;;;;;11.27;3.88;;;;;;;9.30;100.00;98924.91;5240492;28;20028;-75
2023/03/14 05:57:36;;;;;;;7.57;3.38;;;;;;;9.34;100.00;98926.97;5228464;28;20107;-75
2023/03/14 06:00:07;;;;;;;9.55;3.85;;;;;;;9.37;100.00;98927.59;5216246;28;20024;-76
2023/03/14 06:02:37;;;;;;;8.77;3.53;;;;;;;9.43;100.00;98919.53;5229808;28;20577;-78
2023/03/14 06:05:08;;;;;;;7.38;3.20;;;;;;;9.46;100.00;98921.81;5249210;28;20017;-79
2023/03/14 06:07:39;;;;;;;9.95;3.22;;;;;;;9.49;100.00;98924.09;5227867;28;20054;-76
2023/03/14 06:10:09;;;;;;;9.77;3.17;;;;;;;9.54;100.00;98926.16;5222149;28;20435;-77
2023/03/14 06:12:40;;;;;;;5.50;3.10;;;;;;;9.59;100.00;98923.69;5246934;28;20024;-77
2023/03/14 06:15:10;;;;;;;7.45;2.97;;;;;;;9.58;100.00;98919.34;5246081;28;20027;-76
2023/03/14 06:17:41;;;;;;;9.15;3.10;;;;;;;9.62;100.00;98933.97;5228195;28;20101;-75
2023/03/14 06:20:12;;;;;;;8.23;3.42;;;;;;;9.69;100.00;98934.81;5246934;28;20034;-76
2023/03/14 06:22:43;;;;;;;5.93;2.40;;;;;;;9.75;100.00;98941.19;5246652;28;20035;-77
2023/03/14 06:25:13;;;;;;;5.10;2.30;;;;;;;9.75;100.00;98944.69;5246437;28;20020;-75
2023/03/14 06:27:44;;;;;;;12.88;3.00;;;;;;;9.71;100.00;98938.09;5245618;28;20029;-76
2023/03/14 06:30:15;;;;;;;8.30;2.70;;;;;;;9.66;100.00;98943.25;5235994;28;20032;-76
2023/03/14 06:32:45;;;;;;;8.70;2.42;;;;;;;9.60;100.00;98944.88;5245958;28;20512;-76
2023/03/14 06:35:16;;;;;;;6.78;2.55;;;;;;;9.60;100.00;98947.56;5211524;28;20035;-75
2023/03/14 06:37:46;;;;;;;7.45;2.33;;;;;;;9.52;100.00;98944.25;5227371;28;20377;-76
2023/03/14 06:40:19;;;;;;;6.95;2.58;;;;;;;9.55;100.00;98962.59;5237522;28;20688;-76
2023/03/14 06:42:50;;;;;;;9.52;2.65;;;;;;;9.52;100.00;98958.47;5233024;28;20047;-76
2023/03/14 06:45:20;;;;;;;6.57;2.85;;;;;;;9.47;100.00;98960.13;5244107;28;20507;-76
2023/03/14 06:47:51;;;;;;;5.28;2.80;;;;;;;9.42;100.00;98968.75;5244097;28;20032;-76
2023/03/14 06:50:22;;;;;;;5.50;2.90;;;;;;;9.37;100.00;98976.56;5243697;28;20081;-76
2023/03/14 06:52:53;;;;;;;9.80;3.22;;;;;;;9.34;100.00;98977.00;5216362;28;20040;-76
2023/03/14 06:55:23;;;;;;;7.63;3.47;;;;;;;9.39;100.00;98985.25;5222608;28;20020;-76
2023/03/14 06:57:54;;;;;;;8.55;3.08;;;;;;;9.38;100.00;98990.78;5209201;28;20337;-76
2023/03/14 07:00:24;;;;;;;12.23;3.15;;;;;;;9.39;100.00;99011.16;5213007;28;20017;-76
2023/03/14 07:02:55;;;;;;;4.10;1.60;;;;;;;9.05;100.00;99077.97;5226278;28;20569;-76
2023/03/14 07:05:25;;;;;;;2.58;1.00;;;;;;;8.53;100.00;99086.50;5226239;28;20136;-76
2023/03/14 07:07:56;;;;;;;2.83;0.80;;;;;;;7.98;100.00;99088.13;5239948;28;20027;-76
2023/03/14 07:10:27;;;;;;;4.80;1.20;;;;;;;7.73;100.00;99109.88;5240178;28;20040;-76
2023/03/14 07:12:57;;;;;;;1.55;0.98;;;;;;;7.61;100.00;99119.38;5226589;28;20024;-76
2023/03/14 07:15:29;;;;;;;2.30;1.17;;;;;;;7.53;100.00;99139.03;5243680;28;20443;-75
2023/03/14 07:18:00;;;;;;;4.45;1.42;;;;;;;7.48;100.00;99146.78;5242865;28;20074;-76
2023/03/14 07:20:32;;;;;;;2.28;1.30;;;;;;;7.39;100.00;99161.22;5242709;28;20020;-76
2023/03/14 07:23:03;;;;;;;9.32;3.22;;;;;;;7.32;100.00;99157.63;5243891;28;20493;-75
2023/03/14 07:25:33;;;;;;;5.38;3.90;;;;;;;7.19;100.00;99193.00;5243768;28;20095;-75
2023/03/14 07:28:04;;;;;;;6.95;3.88;;;;;;;7.13;100.00;99192.88;5240846;28;20028;-75
2023/03/14 07:30:34;;;;;;;9.27;3.35;;;;;;;7.01;100.00;99211.19;5217935;28;20032;-75
2023/03/14 07:33:05;;;;;;;8.55;3.33;;;;;;;6.87;100.00;99228.81;5242678;28;20063;-75
2023/03/14 07:35:37;;;;;;;5.47;2.08;;;;;;;6.76;100.00;99231.91;5225268;28;20032;-76
2023/03/14 07:38:07;;;;;;;5.35;1.77;;;;;;;6.69;100.00;99244.31;5242928;28;20016;-74
2023/03/14 07:40:38;;;;;;;5.20;1.50;;;;;;;6.67;100.00;99265.81;5221281;28;20500;-75
2023/03/14 07:43:08;;;;;;;3.80;1.30;;;;;;;6.68;100.00;99277.31;5243412;28;20027;-75
2023/03/14 07:45:38;;;;;;;4.53;1.30;;;;;;;6.70;100.00;99268.13;5242426;28;20039;-75
2023/03/14 07:48:09;;;;;;;5.90;1.33;;;;;;;6.65;100.00;99296.31;5242676;28;20070;-75
2023/03/14 07:50:40;;;;;;;5.50;1.38;;;;;;;6.63;100.00;99301.00;5242106;28;20086;-75
2023/03/14 07:53:10;;;;;;;10.30;1.95;;;;;;;6.60;100.00;99317.34;5230514;28;20025;-75
2023/03/14 07:55:41;;;;;;;5.80;1.40;;;;;;;6.61;100.00;99316.34;5242179;28;20020;-75
2023/03/14 07:58:12;;;;;;;2.63;1.48;;;;;;;6.60;100.00;99336.00;5207680;28;20090;-75
2023/03/14 08:00:43;;;;;;;7.43;1.42;;;;;;;6.57;100.00;99339.00;5230220;28;20020;-75
2023/03/14 08:03:13;;;;;;;5.43;1.70;;;;;;;6.60;100.00;99344.00;5243017;28;20078;-75
2023/03/14 08:05:47;;;;;;;9.77;1.70;;;;;;;6.59;100.00;99347.66;5243174;28;20016;-75
2023/03/14 08:08:18;;;;;;;5.65;1.88;;;;;;;6.61;100.00;99357.13;5240696;28;20020;-75
2023/03/14 08:10:49;;;;;;;4.57;2.28;;;;;;;6.69;100.00;99366.91;5242050;28;20024;-75
2023/03/14 08:13:21;;;;;;;8.80;2.65;;;;;;;6.73;100.00;99376.22;5242834;28;20726;-76
2023/03/14 08:15:51;;;;;;;13.80;3.80;;;;;;;6.74;100.00;99383.22;5242844;28;20024;-77
2023/03/14 08:18:22;;;;;;;7.80;3.22;;;;;;;6.71;100.00;99394.22;5224317;28;20374;-77
2023/03/14 08:20:52;;;;;;;8.35;1.95;;;;;;;6.68;100.00;99406.06;5223795;28;20031;-75
2023/03/14 08:23:22;;;;;;;10.00;2.83;;;;;;;6.68;100.00;99411.41;5243089;28;20050;-77
2023/03/14 08:25:53;;;;;;;8.73;2.20;;;;;;;6.71;100.00;99404.88;5242518;28;20020;-76
2023/03/14 08:28:23;;;;;;;5.47;1.80;;;;;;;6.73;100.00;99421.53;5219760;28;20036;-76
2023/03/14 08:30:54;;;;;;;7.25;2.45;;;;;;;6.88;100.00;99433.09;5219403;28;20025;-76
2023/03/14 08:33:27;;;;;;;11.13;3.03;;;;;;;6.91;100.00;99430.06;5242710;28;20115;-76
2023/03/14 08:36:00;;;;;;;6.25;2.88;;;;;;;6.95;100.00;99428.69;5242361;28;20027;-76
2023/03/14 08:38:30;;;;;;;5.43;1.98;;;;;;;6.97;100.00;99452.50;5242273;28;20028;-76
2023/03/14 08:41:02;;;;;;;8.13;1.60;;;;;;;6.99;100.00;99461.19;5237895;28;20024;-76
2023/03/14 08:43:32;;;;;;;4.57;1.42;;;;;;;7.11;100.00;99464.25;5241606;28;20555;-76
2023/03/14 08:46:03;;;;;;;4.97;1.30;;;;;;;7.17;100.00;99476.88;5242044;28;20039;-76
2023/03/14 08:48:34;;;;;;;3.92;1.45;;;;;;;7.24;100.00;99485.84;5242361;28;20085;-76
2023/03/14 08:51:07;;;;;;;3.70;1.00;;;;;;;7.33;100.00;99490.13;5241733;28;20028;-76
2023/03/14 08:53:38;;;;;;;7.20;1.58;;;;;;;7.30;100.00;99503.81;5229303;28;20070;-76
2023/03/14 08:56:09;;;;;;;8.18;1.67;;;;;;;7.43;100.00;99501.38;5242491;28;20024;-76
2023/03/14 08:58:41;;;;;;;7.70;1.63;;;;;;;7.46;100.00;99513.53;5238413;28;20031;-76
2023/03/14 09:01:11;;;;;;;3.80;1.13;;;;;;;7.39;100.00;99524.09;5232573;28;20020;-75
2023/03/14 09:03:42;;;;;;;2.40;1.38;;;;;;;7.40;100.00;99539.06;5224531;28;20039;-76
2023/03/14 09:06:13;;;;;;;5.03;1.10;;;;;;;7.36;100.00;99537.78;5242499;28;20050;-76
2023/03/14 09:08:44;;;;;;;4.68;1.55;;;;;;;7.45;100.00;99555.38;5219826;28;20054;-76
2023/03/14 09:11:17;;;;;;;3.28;1.10;;;;;;;7.44;100.00;99567.06;5241165;28;20040;-76
2023/03/14 09:13:48;;;;;;;8.05;1.92;;;;;;;7.32;100.00;99564.97;5242276;28;20109;-76
2023/03/14 09:16:18;;;;;;;9.25;3.15;;;;;;;7.33;100.00;99579.97;5242291;28;20032;-76
2023/03/14 09:18:49;;;;;;;7.18;2.60;;;;;;;7.27;100.00;99584.19;5257458;28;20063;-76
2023/03/14 09:21:21;;;;;;;6.53;2.92;;;;;;;7.21;100.00;99596.38;5244776;28;20028;-75
2023/03/14 09:23:51;;;;;;;8.10;2.90;;;;;;;7.17;100.00;99602.25;5208064;28;20135;-76
2023/03/14 09:26:22;;;;;;;5.82;1.30;;;;;;;7.11;100.00;99616.28;5242450;28;20095;-77
2023/03/14 09:28:53;;;;;;;8.15;1.30;;;;;;;7.07;100.00;99628.28;5237499;28;20198;-76
2023/03/14 09:31:23;;;;;;;8.25;1.50;;;;;;;6.90;100.00;99635.53;5226105;28;20025;-76
2023/03/14 09:33:53;;;;;;;5.45;1.92;;;;;;;6.89;100.00;99645.38;5245378;28;20020;-76
2023/03/14 09:36:24;;;;;;;7.20;1.90;;;;;;;6.91;100.00;99656.69;5227654;28;20024;-76
2023/03/14 09:38:55;;;;;;;6.00;2.20;;;;;;;6.86;100.00;99669.69;5228070;28;20508;-76
2023/03/14 09:41:32;;;;;;;3.75;1.80;;;;;;;6.69;100.00;99670.75;5241360;28;20024;-77
2023/03/14 09:44:08;;;;;;;4.00;1.23;;;;;;;6.45;100.00;99687.59;5227572;28;20017;-76
2023/03/14 09:46:42;;;;;;;1.25;0.65;;;;;;;6.17;100.00;99695.91;5227529;28;20036;-77
2023/03/14 09:49:34;;;;;;;2.58;1.08;;;;;;;5.95;100.00;99694.72;5245522;28;20401;-76
2023/03/14 09:52:14;;;;;;;3.88;1.00;;;;;;;5.88;100.00;99706.19;5245055;28;20029;-77
2023/03/14 09:55:04;;;;;;;2.50;0.75;;;;;;;5.88;100.00;99728.31;5245148;28;20030;-75
2023/03/14 09:57:36;;;;;;;2.95;1.30;;;;;;;5.94;100.00;99740.16;5227356;28;20020;-77
2023/03/14 10:00:15;;;;;;;5.88;1.40;;;;;;;5.93;100.00;99731.34;5233297;28;22098;-77
2023/03/14 10:02:53;;;;;;;3.65;0.90;;;;;;;5.92;100.00;99751.00;5245396;28;20432;-77
2023/03/14 10:05:26;;;;;;;1.95;0.90;;;;;;;5.97;100.00;99771.75;5261008;28;20027;-76
2023/03/14 10:07:56;;;;;;;2.10;0.70;;;;;;;6.03;100.00;99773.81;5223566;28;20371;-75
2023/03/14 10:10:27;;;;;;;1.90;0.88;;;;;;;6.11;100.00;99780.97;5241191;28;20074;-75
2023/03/14 10:13:18;;;;;;;7.07;4.18;;;;;;;6.22;100.00;99796.63;5226869;28;20465;-76
2023/03/14 10:16:07;;;;;;;2.88;1.55;;;;;;;6.27;100.00;99809.44;5227138;28;20078;-76
2023/03/14 10:18:43;;;;;;;5.93;2.40;;;;;;;6.25;100.00;99820.28;5244566;28;20107;-77
2023/03/14 10:21:51;;;;;;;5.80;1.50;;;;;;;6.31;100.00;99834.75;5244656;28;20028;-76
2023/03/14 10:24:28;;;;;;;3.08;1.70;;;;;;;6.33;100.00;99848.78;5244725;28;20094;-76
2023/03/14 10:27:02;;;;;;;5.90;1.60;;;;;;;6.30;100.00;99844.59;5244349;28;20028;-77
2023/03/14 10:29:34;;;;;;;9.27;3.38;;;;;;;6.29;100.00;99853.59;5216961;28;20027;-77
2023/03/14 10:32:07;;;;;;;8.23;4.28;;;;;;;6.33;100.00;99860.25;5242789;28;20036;-77
2023/03/14 10:34:38;;;;;;;7.95;3.63;;;;;;;6.44;100.00;99872.44;5244568;28;20048;-76
2023/03/14 10:37:21;;;;;;;6.38;2.40;;;;;;;6.53;100.00;99875.97;5226335;28;20056;-76
2023/03/14 10:39:55;;;;;;;13.45;7.15;;;;;;;6.60;100.00;99888.44;5244286;28;20028;-76
2023/03/14 10:45:51;;;;;;;8.38;2.38;;;;;;;6.61;100.00;99913.25;5244477;28;20055;-76
2023/03/14 10:48:28;;;;;;;15.15;7.70;;;;;;;6.55;100.00;99916.59;5244291;28;20040;-76
2023/03/14 10:51:11;;;;;;;6.63;3.53;;;;;;;6.48;100.00;99925.25;5243712;28;20507;-77
2023/03/14 10:53:45;;;;;;;4.50;1.60;;;;;;;6.50;100.00;99930.41;5230793;28;20021;-77
2023/03/14 10:56:36;;;;;;;7.57;1.90;;;;;;;6.53;100.00;99940.75;5226129;28;20084;-77
2023/03/14 10:59:13;;;;;;;4.50;1.60;;;;;;;6.49;100.00;99947.38;5215404;28;20037;-76
2023/03/14 11:02:21;;;;;;;7.38;2.17;;;;;;;6.47;100.00;99955.53;5242606;28;20020;-77
2023/03/14 11:05:28;;;;;;;8.68;3.00;;;;;;;6.46;100.00;99967.19;5243589;28;20024;-76
2023/03/14 11:08:07;;;;;;;3.38;2.38;;;;;;;6.54;100.00;99978.88;5238819;28;20096;-76
2023/03/14 11:10:42;;;;;;;8.38;3.17;;;;;;;6.69;100.00;99988.75;5221446;28;20438;-77
2023/03/14 11:13:16;;;;;;;8.50;2.60;;;;;;;6.96;100.00;99995.66;5225350;28;20024;-76
2023/03/14 11:16:14;;;;;;;7.50;2.70;;;;;;;7.29;100.00;100003.72;5243230;28;20025;-76
2023/03/14 11:19:22;;;;;;;3.55;1.55;;;;;;;7.52;100.00;100009.19;5242858;28;20558;-76
2023/03/14 11:22:16;;;;;;;6.72;1.70;;;;;;;7.80;100.00;100015.03;5243009;28;20464;-76
2023/03/14 11:25:16;;;;;;;6.85;1.35;;;;;;;7.91;100.00;100016.53;5243101;28;20028;-76
2023/03/14 11:28:01;;;;;;;2.08;0.80;;;;;;;8.01;100.00;100026.03;5242518;28;20056;-76
2023/03/14 11:30:51;;;;;;;4.90;0.97;;;;;;;8.08;100.00;100028.84;5215564;28;20027;-76
2023/03/14 11:33:31;;;;;;;5.10;1.17;;;;;;;8.14;100.00;100044.22;5242971;28;20060;-77
2023/03/14 11:36:21;;;;;;;5.43;0.93;;;;;;;8.10;100.00;100042.88;5243182;28;20472;-77
2023/03/14 11:38:56;;;;;;;4.97;1.15;;;;;;;8.14;100.00;100054.06;5224218;28;20170;-77
2023/03/14 11:41:30;;;;;;;;;;;;;;;8.03;100.00;100053.41;5242833;28;20024;-76
2023/03/14 11:44:10;;;;;;;8.07;1.35;;;;;;;8.00;100.00;100059.09;5242017;28;19987;-76
2023/03/14 11:46:48;;;;;;;5.18;1.00;;;;;;;7.89;100.00;100067.44;5242597;28;20039;-77
2023/03/14 11:49:35;;;;;;;7.72;1.08;;;;;;;7.98;100.00;100077.13;5241982;28;20078;-76
2023/03/14 11:52:13;;;;;;;6.35;1.10;;;;;;;8.04;100.00;100079.13;5238418;28;20535;-77
2023/03/14 11:54:49;;;;;;;8.20;1.13;;;;;;;8.01;100.00;100079.44;5233873;28;20032;-77
2023/03/14 11:57:21;;;;;;;12.07;2.15;;;;;;;8.08;100.00;100094.78;5240515;28;20055;-77
2023/03/14 11:59:56;;;;;;;9.55;1.38;;;;;;;7.96;100.00;100124.53;5229570;28;20025;-77
2023/03/14 12:02:48;;;;;;;5.43;1.05;;;;;;;7.32;100.00;100150.09;5224290;28;20052;-76